Jamie Marie — WDE7178 — position and weather

sailwx.info

Track history (hours):
 
Tides and Currents Weather Stations Pressure Air Temp Water Temp Dewpoint Dewpoint Depression Visibility Wind Speed Wind Dir Waves Ship Positions

Jamie Marie

Owner: Jamie Marie, Inc., Aberdeen, WA. More information available from US FCC via Universal Licensing System and Coast Guard Vessel Documentation Center.

Last reported at 2014-Oct-31 08:03 UTC. Time now 2014-Oct-31 10:51 UTC.
Position N 45°48' W 124°31'.

Length 30 m.

Type: Fishing. MMSI: 366425240.

Date/timePositionNaut miles runAvg speedWind from/ knotsBaromVisibWave heightAir tempDewpointWater temp
2014-Oct-31 08:03N 45°48' W 124°31'3 7.0
2014-Oct-31 07:33N 45°44' W 124°32'8 8.1
2014-Oct-31 06:32N 45°36' W 124°34'8 8.1
2014-Oct-31 05:33N 45°28' W 124°36'8 8.2
2014-Oct-31 04:34N 45°20' W 124°38'  
2014-Oct-28 18:32N 45°16' W 124°16'3 3.5
2014-Oct-28 17:33N 45°20' W 124°16'3 3.0
2014-Oct-28 16:29N 45°23' W 124°16'3 2.7
2014-Oct-28 15:33N 45°25' W 124°17'3 2.5
2014-Oct-28 14:33N 45°28' W 124°17'2 1.7
2014-Oct-28 13:33N 45°29' W 124°19'2 2.1
2014-Oct-28 12:33N 45°31' W 124°20'2 2.3
2014-Oct-28 11:33N 45°33' W 124°21'3 2.9
2014-Oct-28 10:33N 45°36' W 124°23'3 3.0
2014-Oct-28 09:33N 45°39' W 124°25'3 3.0
2014-Oct-28 08:33N 45°42' W 124°26'3 3.1
2014-Oct-28 07:33N 45°45' W 124°27'3 3.5
2014-Oct-28 06:34N 45°48' W 124°27'4 4.0
2014-Oct-28 05:34N 45°52' W 124°28'4 4.3
2014-Oct-28 04:33N 45°56' W 124°29'4 4.4
2014-Oct-28 03:33N 46°01' W 124°30'5 4.6
2014-Oct-28 02:33N 46°05' W 124°31'5 5.2
2014-Oct-28 01:33N 46°10' W 124°32'5 5.3
2014-Oct-28 00:33N 46°16' W 124°33'5 5.3
2014-Oct-27 23:33N 46°21' W 124°32'5 5.1
2014-Oct-27 22:33N 46°26' W 124°32'5 4.8
2014-Oct-27 21:33N 46°31' W 124°33'5 5.1
2014-Oct-27 20:33N 46°35' W 124°38'3 4.7
2014-Oct-27 19:55N 46°37' W 124°40'2 4.7
2014-Oct-27 19:33N 46°38' W 124°42'3 4.7
2014-Oct-27 18:55N 46°41' W 124°44'2 4.5
2014-Oct-27 18:33N 46°42' W 124°45'0 4.4
2014-Oct-27 18:30N 46°42' W 124°45'4 4.0
2014-Oct-27 17:33N 46°45' W 124°41'7 7.1
2014-Oct-27 16:33N 46°48' W 124°32'8 7.9
2014-Oct-27 15:33N 46°51' W 124°21'8 8.7
2014-Oct-27 14:40N 46°55' W 124°11'  
2014-Oct-24 20:15N 46°22' W 124°36'1 0.5
2014-Oct-24 18:19N 46°22' W 124°37'  
Track history (hours):
 
Tides and Currents Weather Stations Pressure Air Temp Water Temp Dewpoint Dewpoint Depression Visibility Wind Speed Wind Dir Waves Ship Positions

Jamie Marie

Owner: Jamie Marie, Inc., Aberdeen, WA. More information available from US FCC via Universal Licensing System and Coast Guard Vessel Documentation Center.

Last reported at 2014-Oct-31 08:03 UTC. Time now 2014-Oct-31 10:51 UTC.
Position N 45°48' W 124°31'.

Length 30 m.

Type: Fishing. MMSI: 366425240.

Date/timePositionNaut miles runAvg speedWind from/ knotsBaromVisibWave heightAir tempDewpointWater temp
2014-Oct-31 08:03N 45°48' W 124°31'3 7.0
2014-Oct-31 07:33N 45°44' W 124°32'8 8.1
2014-Oct-31 06:32N 45°36' W 124°34'8 8.1
2014-Oct-31 05:33N 45°28' W 124°36'8 8.2
2014-Oct-31 04:34N 45°20' W 124°38'  
2014-Oct-28 18:32N 45°16' W 124°16'3 3.5
2014-Oct-28 17:33N 45°20' W 124°16'3 3.0
2014-Oct-28 16:29N 45°23' W 124°16'3 2.7
2014-Oct-28 15:33N 45°25' W 124°17'3 2.5
2014-Oct-28 14:33N 45°28' W 124°17'2 1.7
2014-Oct-28 13:33N 45°29' W 124°19'2 2.1
2014-Oct-28 12:33N 45°31' W 124°20'2 2.3
2014-Oct-28 11:33N 45°33' W 124°21'3 2.9
2014-Oct-28 10:33N 45°36' W 124°23'3 3.0
2014-Oct-28 09:33N 45°39' W 124°25'3 3.0
2014-Oct-28 08:33N 45°42' W 124°26'3 3.1
2014-Oct-28 07:33N 45°45' W 124°27'3 3.5
2014-Oct-28 06:34N 45°48' W 124°27'4 4.0
2014-Oct-28 05:34N 45°52' W 124°28'4 4.3
2014-Oct-28 04:33N 45°56' W 124°29'4 4.4
2014-Oct-28 03:33N 46°01' W 124°30'5 4.6
2014-Oct-28 02:33N 46°05' W 124°31'5 5.2
2014-Oct-28 01:33N 46°10' W 124°32'5 5.3
2014-Oct-28 00:33N 46°16' W 124°33'5 5.3
2014-Oct-27 23:33N 46°21' W 124°32'5 5.1
2014-Oct-27 22:33N 46°26' W 124°32'5 4.8
2014-Oct-27 21:33N 46°31' W 124°33'5 5.1
2014-Oct-27 20:33N 46°35' W 124°38'3 4.7
2014-Oct-27 19:55N 46°37' W 124°40'2 4.7
2014-Oct-27 19:33N 46°38' W 124°42'3 4.7
2014-Oct-27 18:55N 46°41' W 124°44'2 4.5
2014-Oct-27 18:33N 46°42' W 124°45'0 4.4
2014-Oct-27 18:30N 46°42' W 124°45'4 4.0
2014-Oct-27 17:33N 46°45' W 124°41'7 7.1
2014-Oct-27 16:33N 46°48' W 124°32'8 7.9
2014-Oct-27 15:33N 46°51' W 124°21'8 8.7
2014-Oct-27 14:40N 46°55' W 124°11'  
2014-Oct-24 20:15N 46°22' W 124°36'1 0.5
2014-Oct-24 18:19N 46°22' W 124°37'  

Dump ship's entire track history